createdAt,value
2018-06-16T00:00:48.353Z,17.31
2018-06-16T00:01:48.358Z,17.27
2018-06-16T00:02:48.358Z,17.41
2018-06-16T00:03:48.362Z,17.38
2018-06-16T00:04:48.366Z,17.45
2018-06-16T00:05:48.367Z,17.39
2018-06-16T00:06:48.370Z,17.39
2018-06-16T00:07:48.373Z,17.41
2018-06-16T00:08:48.377Z,17.44
2018-06-16T00:09:48.380Z,17.33
2018-06-16T00:10:48.383Z,17.23
2018-06-16T00:11:48.386Z,17.15
2018-06-16T00:12:48.389Z,17.02
2018-06-16T00:13:48.392Z,16.93
2018-06-16T00:14:48.396Z,16.97
2018-06-16T00:15:48.398Z,16.99
2018-06-16T00:16:48.401Z,17.04
2018-06-16T00:17:48.404Z,17.01
2018-06-16T00:18:48.406Z,17.08
2018-06-16T00:19:48.409Z,17.05
2018-06-16T00:20:48.413Z,17.19
2018-06-16T00:21:48.416Z,17.19
2018-06-16T00:22:48.418Z,17.14
2018-06-16T00:23:48.420Z,17.16
2018-06-16T00:24:48.426Z,17.19
2018-06-16T00:25:48.432Z,17.22
2018-06-16T00:26:48.430Z,17.23
2018-06-16T00:27:48.433Z,17.26
2018-06-16T00:28:48.436Z,17.29
2018-06-16T00:29:48.438Z,17.30
2018-06-16T00:30:48.440Z,17.26
2018-06-16T00:31:48.445Z,17.41
2018-06-16T00:32:48.447Z,17.42
2018-06-16T00:33:48.449Z,17.45
2018-06-16T00:34:48.453Z,17.48
2018-06-16T00:35:48.457Z,17.41
2018-06-16T00:36:48.460Z,17.48
2018-06-16T00:37:48.462Z,17.48
2018-06-16T00:38:48.465Z,17.41
2018-06-16T00:39:48.468Z,17.44
2018-06-16T00:40:48.473Z,17.42
2018-06-16T00:41:48.473Z,17.44
2018-06-16T00:42:48.477Z,17.39
2018-06-16T00:43:48.482Z,17.39
2018-06-16T00:44:48.483Z,17.31
2018-06-16T00:45:48.485Z,17.44
2018-06-16T00:46:48.488Z,17.30
2018-06-16T00:47:48.492Z,17.41
2018-06-16T00:48:48.500Z,17.42
2018-06-16T00:49:48.498Z,17.51
2018-06-16T00:50:48.501Z,17.44
2018-06-16T00:51:48.504Z,17.48
2018-06-16T00:52:48.546Z,17.46
2018-06-16T00:53:48.510Z,17.52
2018-06-16T00:54:48.513Z,17.42
2018-06-16T00:55:48.516Z,17.44
2018-06-16T00:56:48.520Z,17.45
2018-06-16T00:57:48.525Z,17.54
2018-06-16T00:58:48.525Z,17.60
2018-06-16T00:59:48.528Z,17.57
2018-06-16T01:00:48.533Z,17.51
2018-06-16T01:01:48.534Z,17.63
2018-06-16T01:02:48.537Z,17.49
2018-06-16T01:03:48.541Z,17.56
2018-06-16T01:04:48.543Z,17.46
2018-06-16T01:05:48.546Z,17.46
2018-06-16T01:06:48.549Z,17.42
2018-06-16T01:07:48.552Z,17.51
2018-06-16T01:08:48.556Z,17.41
2018-06-16T01:09:48.557Z,17.42
2018-06-16T01:10:48.561Z,17.38
2018-06-16T01:11:48.565Z,17.51
2018-06-16T01:12:48.568Z,17.41
2018-06-16T01:13:48.571Z,17.41
2018-06-16T01:14:48.573Z,17.36
2018-06-16T01:15:48.581Z,17.31
2018-06-16T01:16:48.581Z,17.27
2018-06-16T01:17:48.583Z,17.24
2018-06-16T01:18:48.586Z,17.31
2018-06-16T01:19:48.589Z,17.27
2018-06-16T01:20:48.594Z,17.27
2018-06-16T01:21:48.595Z,17.30
2018-06-16T01:22:48.597Z,17.20
2018-06-16T01:23:48.601Z,17.20
2018-06-16T01:24:48.605Z,17.19
2018-06-16T01:25:48.608Z,17.22
2018-06-16T01:26:48.609Z,17.19
2018-06-16T01:27:48.613Z,17.20
2018-06-16T01:28:48.616Z,17.19
2018-06-16T01:29:48.618Z,17.15
2018-06-16T01:30:48.622Z,17.15
2018-06-16T01:31:48.625Z,17.16
2018-06-16T01:32:48.628Z,17.23
2018-06-16T01:33:48.632Z,17.19
2018-06-16T01:34:48.633Z,17.11
2018-06-16T01:35:48.635Z,17.11
2018-06-16T01:36:48.640Z,17.12
2018-06-16T01:37:48.641Z,17.11
2018-06-16T01:38:48.647Z,17.06
2018-06-16T01:39:48.648Z,17.08
2018-06-16T01:40:48.651Z,16.99
2018-06-16T01:41:48.654Z,17.02
2018-06-16T01:42:48.656Z,17.01
2018-06-16T01:43:48.660Z,16.91
2018-06-16T01:44:48.663Z,17.01
2018-06-16T01:45:48.670Z,17.01
2018-06-16T01:46:48.668Z,16.99
2018-06-16T01:47:48.671Z,16.96
2018-06-16T01:48:48.675Z,16.89
2018-06-16T01:49:48.677Z,16.93
2018-06-16T01:50:48.680Z,16.91
2018-06-16T01:51:48.683Z,16.89
2018-06-16T01:52:48.687Z,16.86
2018-06-16T01:53:48.690Z,16.86
2018-06-16T01:54:48.691Z,16.89
2018-06-16T01:55:48.694Z,16.87
2018-06-16T01:56:48.698Z,16.89
2018-06-16T01:57:48.699Z,16.93
2018-06-16T01:58:48.702Z,16.81
2018-06-16T01:59:48.706Z,16.78
2018-06-16T02:00:48.709Z,16.75
2018-06-16T02:01:48.711Z,16.72
2018-06-16T02:02:48.719Z,16.74
2018-06-16T02:03:48.717Z,16.71
2018-06-16T02:04:48.722Z,16.75
2018-06-16T02:05:48.721Z,16.65
2018-06-16T02:06:48.725Z,16.72
2018-06-16T02:07:48.727Z,16.61
2018-06-16T02:08:48.731Z,16.64
2018-06-16T02:09:48.732Z,16.69
2018-06-16T02:10:48.735Z,16.60
2018-06-16T02:11:48.738Z,16.60
2018-06-16T02:12:48.741Z,16.51
2018-06-16T02:13:48.745Z,16.54
2018-06-16T02:14:48.748Z,16.50
2018-06-16T02:15:48.749Z,16.43
2018-06-16T02:16:48.752Z,16.42
2018-06-16T02:17:48.753Z,16.35
2018-06-16T02:18:48.759Z,16.41
2018-06-16T02:19:48.759Z,16.35
2018-06-16T02:20:48.768Z,16.26
2018-06-16T02:21:48.763Z,16.28
2018-06-16T02:22:48.771Z,16.26
2018-06-16T02:23:48.769Z,16.16
2018-06-16T02:24:48.772Z,16.20
2018-06-16T02:25:48.775Z,16.15
2018-06-16T02:26:48.776Z,16.15
2018-06-16T02:27:48.781Z,16.16
2018-06-16T02:28:48.788Z,16.20
2018-06-16T02:29:48.783Z,16.15
2018-06-16T02:30:48.794Z,16.15
2018-06-16T02:31:48.789Z,16.13
2018-06-16T02:32:48.791Z,16.15
2018-06-16T02:33:48.797Z,16.13
2018-06-16T02:34:48.796Z,16.05
2018-06-16T02:35:48.799Z,16.04
2018-06-16T02:36:48.801Z,16.08
2018-06-16T02:37:48.802Z,16.00
2018-06-16T02:38:48.804Z,16.08
2018-06-16T02:39:48.807Z,16.15
2018-06-16T02:40:48.809Z,16.05
2018-06-16T02:41:48.811Z,16.09
2018-06-16T02:42:48.813Z,16.08
2018-06-16T02:43:48.816Z,16.09
2018-06-16T02:44:48.820Z,16.08
2018-06-16T02:45:48.820Z,16.13
2018-06-16T02:46:48.822Z,16.13
2018-06-16T02:47:48.825Z,16.05
2018-06-16T02:48:48.836Z,16.08
2018-06-16T02:49:48.829Z,16.01
2018-06-16T02:50:48.830Z,16.01
2018-06-16T02:51:48.834Z,16.09
2018-06-16T02:52:48.836Z,16.05
2018-06-16T02:53:48.841Z,16.08
2018-06-16T02:54:48.840Z,16.09
2018-06-16T02:55:48.843Z,16.15
2018-06-16T02:56:48.844Z,16.00
2018-06-16T02:57:48.848Z,16.08
2018-06-16T02:58:48.848Z,16.08
2018-06-16T02:59:48.851Z,16.09
2018-06-16T03:00:48.852Z,16.09
2018-06-16T03:01:48.854Z,15.95
2018-06-16T03:02:48.856Z,15.88
2018-06-16T03:03:48.858Z,15.88
2018-06-16T03:04:48.862Z,15.73
2018-06-16T03:05:48.862Z,15.67
2018-06-16T03:06:48.865Z,15.68
2018-06-16T03:07:48.866Z,15.75
2018-06-16T03:08:48.869Z,15.75
2018-06-16T03:09:48.870Z,15.76
2018-06-16T03:10:48.873Z,15.72
2018-06-16T03:11:48.874Z,15.76
2018-06-16T03:12:48.877Z,15.88
2018-06-16T03:13:48.879Z,15.90
2018-06-16T03:14:48.880Z,15.83
2018-06-16T03:15:48.882Z,15.82
2018-06-16T03:16:48.885Z,15.90
2018-06-16T03:17:48.885Z,15.90
2018-06-16T03:18:48.888Z,15.76
2018-06-16T03:19:48.890Z,15.88
2018-06-16T03:20:48.892Z,15.84
2018-06-16T03:21:48.893Z,15.75
2018-06-16T03:22:48.895Z,15.86
2018-06-16T03:23:48.898Z,15.75
2018-06-16T03:24:48.899Z,15.70
2018-06-16T03:25:48.937Z,15.68
2018-06-16T03:26:48.903Z,15.70
2018-06-16T03:27:48.905Z,15.70
2018-06-16T03:28:48.906Z,15.77
2018-06-16T03:29:48.908Z,15.75
2018-06-16T03:30:48.911Z,15.75
2018-06-16T03:31:48.913Z,15.79
2018-06-16T03:32:48.914Z,15.68
2018-06-16T03:33:48.915Z,15.75
2018-06-16T03:34:48.918Z,15.79
2018-06-16T03:35:48.919Z,15.73
2018-06-16T03:36:48.922Z,15.77
2018-06-16T03:37:48.923Z,15.72
2018-06-16T03:38:48.925Z,15.76
2018-06-16T03:39:48.927Z,15.79
2018-06-16T03:40:48.931Z,15.72
2018-06-16T03:41:48.930Z,15.73
2018-06-16T03:42:48.932Z,15.76
2018-06-16T03:43:48.934Z,15.82
2018-06-16T03:44:48.936Z,15.83
2018-06-16T03:45:48.938Z,15.82
2018-06-16T03:46:48.939Z,15.76
2018-06-16T03:47:48.941Z,15.82
2018-06-16T03:48:48.944Z,15.84
2018-06-16T03:49:48.945Z,15.82
2018-06-16T03:50:48.947Z,15.83
2018-06-16T03:51:48.952Z,15.90
2018-06-16T03:52:48.951Z,15.84
2018-06-16T03:53:48.952Z,15.86
2018-06-16T03:54:48.954Z,15.84
2018-06-16T03:55:48.960Z,15.83
2018-06-16T03:56:48.960Z,15.90
2018-06-16T03:57:48.959Z,15.88
2018-06-16T03:58:48.961Z,15.90
2018-06-16T03:59:48.964Z,15.90
2018-06-16T04:00:48.967Z,15.98
2018-06-16T04:01:48.970Z,16.01
2018-06-16T04:02:48.971Z,16.05
2018-06-16T04:03:48.971Z,16.02
2018-06-16T04:04:48.974Z,16.12
2018-06-16T04:05:48.975Z,16.05
2018-06-16T04:06:48.980Z,16.10
2018-06-16T04:07:48.978Z,16.08
2018-06-16T04:08:48.982Z,16.12
2018-06-16T04:09:48.982Z,16.13
2018-06-16T04:10:48.985Z,16.13
2018-06-16T04:11:48.986Z,16.16
2018-06-16T04:12:48.989Z,16.23
2018-06-16T04:13:48.990Z,16.24
2018-06-16T04:14:48.992Z,16.20
2018-06-16T04:15:48.994Z,16.23
2018-06-16T04:16:48.997Z,16.17
2018-06-16T04:17:48.998Z,16.12
2018-06-16T04:18:49.001Z,16.04
2018-06-16T04:19:49.003Z,16.12
2018-06-16T04:20:49.005Z,15.97
2018-06-16T04:21:49.006Z,16.10
2018-06-16T04:22:49.009Z,16.09
2018-06-16T04:23:49.011Z,16.05
2018-06-16T04:24:49.013Z,16.16
2018-06-16T04:25:49.013Z,16.10
2018-06-16T04:26:49.017Z,16.17
2018-06-16T04:27:49.022Z,16.31
2018-06-16T04:28:49.021Z,16.28
2018-06-16T04:29:49.022Z,16.26
2018-06-16T04:30:49.025Z,16.39
2018-06-16T04:31:49.039Z,16.42
2018-06-16T04:32:49.029Z,16.43
2018-06-16T04:33:49.040Z,16.41
2018-06-16T04:34:49.073Z,16.50
2018-06-16T04:35:49.037Z,16.50
2018-06-16T04:36:49.047Z,16.61
2018-06-16T04:37:49.040Z,16.60
2018-06-16T04:38:49.041Z,16.65
2018-06-16T04:39:49.044Z,16.65
2018-06-16T04:40:49.047Z,16.71
2018-06-16T04:41:49.047Z,16.72
2018-06-16T04:42:49.050Z,16.78
2018-06-16T04:43:49.056Z,16.87
2018-06-16T04:44:49.054Z,16.94
2018-06-16T04:45:49.137Z,16.99
2018-06-16T04:46:49.060Z,16.91
2018-06-16T04:47:49.063Z,16.94
2018-06-16T04:48:49.064Z,17.09
2018-06-16T04:49:49.067Z,17.11
2018-06-16T04:50:49.069Z,17.08
2018-06-16T04:51:49.072Z,17.20
2018-06-16T04:52:49.075Z,17.19
2018-06-16T04:53:49.077Z,17.20
2018-06-16T04:54:49.080Z,17.27
2018-06-16T04:55:49.083Z,17.42
2018-06-16T04:56:49.086Z,17.36
2018-06-16T04:57:49.086Z,17.42
2018-06-16T04:58:49.090Z,17.44
2018-06-16T04:59:49.093Z,17.48
2018-06-16T05:00:49.096Z,17.42
2018-06-16T05:01:49.098Z,17.54
2018-06-16T05:02:49.102Z,17.60
2018-06-16T05:03:49.104Z,17.68
2018-06-16T05:04:49.107Z,17.79
2018-06-16T05:05:49.110Z,17.76
2018-06-16T05:06:49.111Z,17.83
2018-06-16T05:07:49.119Z,17.90
2018-06-16T05:08:49.119Z,18.01
2018-06-16T05:09:49.122Z,18.08
2018-06-16T05:10:49.125Z,18.07
2018-06-16T05:11:49.128Z,18.25
2018-06-16T05:12:49.133Z,18.20
2018-06-16T05:13:49.134Z,18.31
2018-06-16T05:14:49.138Z,18.41
2018-06-16T05:15:49.141Z,18.52
2018-06-16T05:16:49.145Z,18.60
2018-06-16T05:17:49.148Z,18.66
2018-06-16T05:18:49.150Z,18.68
2018-06-16T05:19:49.155Z,18.81
2018-06-16T05:20:49.159Z,18.90
2018-06-16T05:21:49.223Z,18.92
2018-06-16T05:22:49.166Z,19.07
2018-06-16T05:23:49.169Z,19.02
2018-06-16T05:24:49.175Z,19.02
2018-06-16T05:25:49.241Z,19.09
2018-06-16T05:26:49.181Z,19.18
2018-06-16T05:27:49.185Z,19.09
2018-06-16T05:28:49.195Z,19.09
2018-06-16T05:29:49.192Z,19.14
2018-06-16T05:30:49.197Z,19.16
2018-06-16T05:31:49.203Z,19.26
2018-06-16T05:32:49.205Z,19.24
2018-06-16T05:33:49.210Z,19.22
2018-06-16T05:34:49.214Z,19.24
2018-06-16T05:35:49.219Z,19.31
2018-06-16T05:36:49.223Z,19.30
2018-06-16T05:37:49.226Z,19.44
2018-06-16T05:38:49.231Z,19.55
2018-06-16T05:39:49.236Z,19.63
2018-06-16T05:40:49.241Z,19.62
2018-06-16T05:41:49.244Z,19.67
2018-06-16T05:42:49.247Z,19.58
2018-06-16T05:43:49.256Z,19.54
2018-06-16T05:44:49.258Z,19.58
2018-06-16T05:45:49.262Z,19.51
2018-06-16T05:46:49.268Z,19.47
2018-06-16T05:47:49.274Z,19.51
2018-06-16T05:48:49.278Z,19.54
2018-06-16T05:49:49.281Z,19.47
2018-06-16T05:50:49.288Z,19.55
2018-06-16T05:51:49.292Z,19.51
2018-06-16T05:52:49.297Z,19.52
2018-06-16T05:53:49.300Z,19.31
2018-06-16T05:54:49.305Z,19.47
2018-06-16T05:55:49.310Z,19.39
2018-06-16T05:56:49.315Z,19.31
2018-06-16T05:57:49.321Z,19.27
2018-06-16T05:58:49.324Z,19.31
2018-06-16T05:59:49.330Z,19.41
2018-06-16T06:00:49.335Z,19.39
2018-06-16T06:01:49.339Z,19.48
2018-06-16T06:02:49.345Z,19.51
2018-06-16T06:03:49.349Z,19.55
2018-06-16T06:04:49.355Z,19.63
2018-06-16T06:05:49.359Z,19.71
2018-06-16T06:06:49.364Z,19.63
2018-06-16T06:07:49.369Z,19.66
2018-06-16T06:08:49.372Z,19.70
2018-06-16T06:09:49.378Z,19.69
2018-06-16T06:10:49.384Z,19.70
2018-06-16T06:11:49.393Z,19.63
2018-06-16T06:12:49.395Z,19.73
2018-06-16T06:13:49.398Z,19.73
2018-06-16T06:14:49.402Z,19.70
2018-06-16T06:15:49.416Z,19.70
2018-06-16T06:16:49.416Z,19.81
2018-06-16T06:17:49.419Z,19.95
2018-06-16T06:18:49.424Z,20.03
2018-06-16T06:19:49.430Z,20.02
2018-06-16T06:20:49.435Z,19.96
2018-06-16T06:21:49.441Z,20.04
2018-06-16T06:22:49.446Z,20.09
2018-06-16T06:23:49.451Z,20.25
2018-06-16T06:24:49.456Z,20.34
2018-06-16T06:25:49.464Z,20.47
2018-06-16T06:26:49.466Z,20.51
2018-06-16T06:27:49.471Z,20.44
2018-06-16T06:28:49.478Z,20.52
2018-06-16T06:29:49.484Z,20.44
2018-06-16T06:30:49.487Z,20.26
2018-06-16T06:31:49.494Z,20.29
2018-06-16T06:32:49.500Z,20.43
2018-06-16T06:33:49.503Z,20.65
2018-06-16T06:34:49.508Z,20.50
2018-06-16T06:35:49.515Z,20.65
2018-06-16T06:36:49.522Z,20.63
2018-06-16T06:37:49.526Z,20.59
2018-06-16T06:38:49.535Z,20.60
2018-06-16T06:39:49.538Z,20.66
2018-06-16T06:40:49.544Z,20.78
2018-06-16T06:41:49.549Z,20.90
2018-06-16T06:42:49.555Z,20.87
2018-06-16T06:43:49.561Z,21.02
2018-06-16T06:44:49.568Z,20.81
2018-06-16T06:45:49.571Z,20.88
2018-06-16T06:46:49.578Z,21.00
2018-06-16T06:47:49.584Z,20.95
2018-06-16T06:48:49.589Z,21.07
2018-06-16T06:49:49.594Z,21.14
2018-06-16T06:50:49.604Z,21.29
2018-06-16T06:51:49.607Z,21.36
2018-06-16T06:52:49.612Z,21.58
2018-06-16T06:53:49.617Z,21.42
2018-06-16T06:54:49.623Z,21.27
2018-06-16T06:55:49.630Z,21.42
2018-06-16T06:56:49.637Z,21.37
2018-06-16T06:57:49.669Z,21.48
2018-06-16T06:58:49.647Z,21.58
2018-06-16T06:59:49.655Z,21.72
2018-06-16T07:00:49.660Z,21.66
2018-06-16T07:01:49.665Z,21.82
2018-06-16T07:02:49.672Z,21.89
2018-06-16T07:03:49.678Z,21.82
2018-06-16T07:04:49.686Z,21.95
2018-06-16T07:05:49.691Z,22.06
2018-06-16T07:06:49.697Z,22.10
2018-06-16T07:07:49.703Z,22.18
2018-06-16T07:08:49.710Z,22.35
2018-06-16T07:09:49.716Z,22.41
2018-06-16T07:10:49.765Z,22.25
2018-06-16T07:11:49.731Z,22.02
2018-06-16T07:12:49.736Z,22.13
2018-06-16T07:13:49.742Z,22.32
2018-06-16T07:14:49.747Z,22.36
2018-06-16T07:15:49.757Z,22.38
2018-06-16T07:16:49.765Z,22.15
2018-06-16T07:17:49.769Z,22.11
2018-06-16T07:18:49.778Z,22.15
2018-06-16T07:19:49.784Z,22.04
2018-06-16T07:20:49.790Z,21.96
2018-06-16T07:21:49.798Z,22.00
2018-06-16T07:22:49.805Z,22.02
2018-06-16T07:23:49.810Z,22.07
2018-06-16T07:24:49.819Z,22.10
2018-06-16T07:25:49.825Z,22.18
2018-06-16T07:26:49.833Z,22.18
2018-06-16T07:27:49.839Z,22.13
2018-06-16T07:28:49.846Z,22.17
2018-06-16T07:29:49.853Z,22.39
2018-06-16T07:30:49.860Z,22.59
2018-06-16T07:31:49.868Z,22.63
2018-06-16T07:32:49.876Z,22.69
2018-06-16T07:33:49.882Z,22.75
2018-06-16T07:34:49.890Z,22.81
2018-06-16T07:35:49.897Z,23.00
2018-06-16T07:36:49.905Z,23.08
2018-06-16T07:37:49.913Z,23.17
2018-06-16T07:38:49.926Z,23.21
2018-06-16T07:39:49.928Z,23.32
2018-06-16T07:40:49.936Z,23.24
2018-06-16T07:41:49.942Z,23.28
2018-06-16T07:42:49.951Z,23.46
2018-06-16T07:43:49.959Z,23.63
2018-06-16T07:44:49.969Z,23.58
2018-06-16T07:45:49.976Z,23.37
2018-06-16T07:46:49.984Z,23.28
2018-06-16T07:47:49.993Z,23.23
2018-06-16T07:48:50.028Z,23.06
2018-06-16T07:49:50.009Z,23.10
2018-06-16T07:50:50.018Z,23.08
2018-06-16T07:51:50.027Z,23.06
2018-06-16T07:52:50.036Z,22.62
2018-06-16T07:53:50.044Z,22.62
2018-06-16T07:54:50.053Z,22.73
2018-06-16T07:55:50.061Z,22.83
2018-06-16T07:56:50.122Z,23.05
2018-06-16T07:57:50.080Z,23.09
2018-06-16T07:58:50.086Z,23.24
2018-06-16T07:59:50.095Z,23.24
2018-06-16T08:00:50.104Z,23.43
2018-06-16T08:01:50.112Z,23.44
2018-06-16T08:02:50.144Z,23.36
2018-06-16T08:03:50.129Z,23.21
2018-06-16T08:04:50.139Z,23.24
2018-06-16T08:05:50.145Z,23.25
2018-06-16T08:06:50.156Z,23.24
2018-06-16T08:07:50.164Z,23.06
2018-06-16T08:08:50.175Z,23.09
2018-06-16T08:09:50.180Z,23.21
2018-06-16T08:10:50.190Z,23.23
2018-06-16T08:11:50.199Z,23.24
2018-06-16T08:12:50.262Z,23.39
2018-06-16T08:13:50.216Z,23.36
2018-06-16T08:14:50.225Z,23.27
2018-06-16T08:15:50.235Z,23.27
2018-06-16T08:16:50.244Z,22.91
2018-06-16T08:17:50.250Z,22.84
2018-06-16T08:18:50.259Z,22.99
2018-06-16T08:19:50.268Z,23.06
2018-06-16T08:20:50.277Z,23.28
2018-06-16T08:21:50.285Z,23.23
2018-06-16T08:22:50.300Z,23.28
2018-06-16T08:23:50.304Z,23.50
2018-06-16T08:24:50.312Z,23.80
2018-06-16T08:25:50.322Z,23.86
2018-06-16T08:26:50.330Z,24.11
2018-06-16T08:27:50.339Z,23.71
2018-06-16T08:28:50.351Z,24.02
2018-06-16T08:29:50.355Z,24.32
2018-06-16T08:30:50.364Z,24.08
2018-06-16T08:31:50.374Z,24.28
2018-06-16T08:32:50.382Z,24.06
2018-06-16T08:33:50.395Z,24.03
2018-06-16T08:34:50.434Z,24.01
2018-06-16T08:35:50.411Z,24.17
2018-06-16T08:36:50.421Z,24.48
2018-06-16T08:37:50.430Z,24.77
2018-06-16T08:38:50.440Z,24.86
2018-06-16T08:39:50.450Z,24.78
2018-06-16T08:40:50.461Z,25.13
2018-06-16T08:41:50.469Z,25.13
2018-06-16T08:42:50.481Z,25.18
2018-06-16T08:43:50.491Z,25.17
2018-06-16T08:44:50.500Z,24.65
2018-06-16T08:45:50.511Z,24.10
2018-06-16T08:46:50.521Z,24.24
2018-06-16T08:47:50.532Z,24.55
2018-06-16T08:48:50.543Z,24.57
2018-06-16T08:49:50.553Z,24.50
2018-06-16T08:50:50.565Z,24.29
2018-06-16T08:51:50.574Z,24.50
2018-06-16T08:52:50.585Z,24.61
2018-06-16T08:53:50.595Z,24.68
2018-06-16T08:54:50.605Z,24.77
2018-06-16T08:55:50.618Z,25.13
2018-06-16T08:56:50.628Z,25.46
2018-06-16T08:57:50.637Z,25.43
2018-06-16T08:58:50.648Z,25.53
2018-06-16T08:59:50.659Z,25.58
2018-06-16T09:00:50.673Z,25.53
2018-06-16T09:01:50.680Z,25.48
2018-06-16T09:02:50.692Z,25.43
2018-06-16T09:03:50.703Z,25.54
2018-06-16T09:04:50.715Z,25.58
2018-06-16T09:05:50.725Z,25.33
2018-06-16T09:06:50.742Z,24.98
2018-06-16T09:07:50.749Z,24.66
2018-06-16T09:08:50.762Z,24.40
2018-06-16T09:09:50.771Z,24.45
2018-06-16T09:10:50.789Z,24.63
2018-06-16T09:11:50.794Z,24.85
2018-06-16T09:12:50.805Z,24.86
2018-06-16T09:13:50.817Z,24.69
2018-06-16T09:14:50.828Z,24.95
2018-06-16T09:15:50.839Z,24.73
2018-06-16T09:16:50.850Z,24.85
2018-06-16T09:17:50.864Z,25.11
2018-06-16T09:18:50.874Z,24.98
2018-06-16T09:19:50.884Z,24.89
2018-06-16T09:20:50.896Z,25.08
2018-06-16T09:21:50.905Z,25.14
2018-06-16T09:22:50.920Z,25.14
2018-06-16T09:23:50.930Z,25.16
2018-06-16T09:24:50.942Z,25.38
2018-06-16T09:25:50.953Z,25.50
2018-06-16T09:26:50.965Z,25.62
2018-06-16T09:27:50.982Z,25.65
2018-06-16T09:28:50.988Z,25.70
2018-06-16T09:29:50.999Z,25.63
2018-06-16T09:30:51.011Z,25.72
2018-06-16T09:31:51.028Z,25.95
2018-06-16T09:32:51.033Z,26.00
2018-06-16T09:33:51.043Z,26.10
2018-06-16T09:34:51.054Z,25.96
2018-06-16T09:35:51.067Z,26.00
2018-06-16T09:36:51.083Z,25.77
2018-06-16T09:37:51.096Z,26.21
2018-06-16T09:38:51.107Z,26.05
2018-06-16T09:39:51.115Z,26.06
2018-06-16T09:40:51.128Z,26.21
2018-06-16T09:41:51.138Z,25.77
2018-06-16T09:42:51.150Z,25.85
2018-06-16T09:43:51.166Z,25.84
2018-06-16T09:44:51.178Z,26.21
2018-06-16T09:45:51.185Z,26.22
2018-06-16T09:46:51.198Z,26.00
2018-06-16T09:47:51.210Z,25.62
2018-06-16T09:48:51.225Z,25.62
2018-06-16T09:49:51.233Z,26.16
2018-06-16T09:50:51.247Z,26.18
2018-06-16T09:51:51.259Z,26.41
2018-06-16T09:52:51.272Z,26.22
2018-06-16T09:53:51.282Z,26.25
2018-06-16T09:54:51.295Z,25.40
2018-06-16T09:55:51.308Z,25.13
2018-06-16T09:56:51.320Z,25.21
2018-06-16T09:57:51.331Z,25.36
2018-06-16T09:58:51.345Z,25.58
2018-06-16T09:59:51.356Z,26.13
2018-06-16T10:00:51.368Z,26.80
2018-06-16T10:01:51.384Z,26.60
2018-06-16T10:02:51.393Z,26.47
2018-06-16T10:03:51.404Z,26.44
2018-06-16T10:04:51.416Z,26.33
2018-06-16T10:05:51.429Z,26.45
2018-06-16T10:06:51.441Z,26.25
2018-06-16T10:07:51.454Z,26.25
2018-06-16T10:08:51.466Z,26.09
2018-06-16T10:09:51.477Z,25.96
2018-06-16T10:10:51.490Z,25.43
2018-06-16T10:11:51.502Z,25.41
2018-06-16T10:12:51.515Z,25.10
2018-06-16T10:13:51.526Z,25.28
2018-06-16T10:14:51.539Z,25.47
2018-06-16T10:15:51.590Z,25.95
2018-06-16T10:16:51.564Z,26.48
2018-06-16T10:17:51.574Z,26.89
2018-06-16T10:18:51.588Z,26.92
2018-06-16T10:19:51.599Z,27.03
2018-06-16T10:20:51.611Z,26.97
2018-06-16T10:21:51.623Z,26.84
2018-06-16T10:22:51.635Z,26.41
2018-06-16T10:23:51.648Z,26.29
2018-06-16T10:24:51.659Z,26.02
2018-06-16T10:25:51.671Z,26.19
2018-06-16T10:26:51.684Z,26.18
2018-06-16T10:27:51.697Z,26.51
2018-06-16T10:28:51.709Z,26.45
2018-06-16T10:29:51.720Z,26.34
2018-06-16T10:30:51.732Z,26.21
2018-06-16T10:31:51.744Z,26.25
2018-06-16T10:32:51.756Z,26.22
2018-06-16T10:33:51.767Z,25.60
2018-06-16T10:34:51.779Z,25.60
2018-06-16T10:35:51.793Z,25.28
2018-06-16T10:36:51.805Z,25.73
2018-06-16T10:37:51.814Z,26.21
2018-06-16T10:38:51.827Z,26.10
2018-06-16T10:39:51.839Z,26.00
2018-06-16T10:40:51.851Z,26.00
2018-06-16T10:41:51.864Z,25.93
2018-06-16T10:42:51.873Z,25.63
2018-06-16T10:43:51.885Z,25.41
2018-06-16T10:44:51.897Z,25.33
2018-06-16T10:45:51.906Z,25.59
2018-06-16T10:46:51.919Z,25.65
2018-06-16T10:47:51.932Z,25.69
2018-06-16T10:48:51.943Z,25.65
2018-06-16T10:49:51.953Z,25.59
2018-06-16T10:50:51.965Z,25.58
2018-06-16T10:51:51.977Z,25.80
2018-06-16T10:52:51.989Z,26.34
2018-06-16T10:53:52.000Z,26.40
2018-06-16T10:54:52.011Z,26.23
2018-06-16T10:55:52.023Z,26.10
2018-06-16T10:56:52.033Z,26.09
2018-06-16T10:57:52.045Z,25.66
2018-06-16T10:58:52.058Z,25.58
2018-06-16T10:59:52.066Z,25.66
2018-06-16T11:00:52.078Z,25.18
2018-06-16T11:01:52.091Z,25.11
2018-06-16T11:02:52.100Z,25.13
2018-06-16T11:03:52.111Z,25.44
2018-06-16T11:04:52.123Z,25.90
2018-06-16T11:05:52.137Z,25.75
2018-06-16T11:06:52.146Z,25.72
2018-06-16T11:07:52.156Z,25.73
2018-06-16T11:08:52.168Z,25.72
2018-06-16T11:09:52.177Z,25.78
2018-06-16T11:10:52.190Z,25.81
2018-06-16T11:11:52.200Z,25.65
2018-06-16T11:12:52.211Z,25.47
2018-06-16T11:13:52.222Z,25.70
2018-06-16T11:14:52.232Z,25.68
2018-06-16T11:15:52.244Z,25.68
2018-06-16T11:16:52.256Z,25.46
2018-06-16T11:17:52.265Z,25.51
2018-06-16T11:18:52.275Z,25.59
2018-06-16T11:19:52.288Z,25.66
2018-06-16T11:20:52.298Z,25.77
2018-06-16T11:21:52.308Z,26.15
2018-06-16T11:22:52.319Z,25.84
2018-06-16T11:23:52.330Z,25.77
2018-06-16T11:24:52.342Z,25.87
2018-06-16T11:25:52.395Z,25.87
2018-06-16T11:26:52.362Z,25.98
2018-06-16T11:27:52.372Z,26.26
2018-06-16T11:28:52.383Z,26.29
2018-06-16T11:29:52.391Z,26.71
2018-06-16T11:30:52.403Z,26.34
2018-06-16T11:31:52.417Z,26.19
2018-06-16T11:32:52.425Z,26.38
2018-06-16T11:33:52.434Z,26.05
2018-06-16T11:34:52.445Z,25.93
2018-06-16T11:35:52.457Z,25.95
2018-06-16T11:36:52.468Z,25.78
2018-06-16T11:37:52.477Z,25.66
2018-06-16T11:38:52.488Z,25.68
2018-06-16T11:39:52.500Z,25.33
2018-06-16T11:40:52.537Z,25.25
2018-06-16T11:41:52.518Z,25.66
2018-06-16T11:42:52.529Z,25.81
2018-06-16T11:43:52.539Z,25.55
2018-06-16T11:44:52.551Z,25.44
2018-06-16T11:45:52.560Z,25.47
2018-06-16T11:46:52.570Z,25.66
2018-06-16T11:47:52.582Z,25.63
2018-06-16T11:48:52.597Z,25.36
2018-06-16T11:49:52.601Z,25.18
2018-06-16T11:50:52.613Z,25.25
2018-06-16T11:51:52.623Z,25.21
2018-06-16T11:52:52.633Z,25.16
2018-06-16T11:53:52.643Z,25.33
2018-06-16T11:54:52.652Z,25.46
2018-06-16T11:55:52.662Z,25.47
2018-06-16T11:56:52.673Z,25.32
2018-06-16T11:57:52.683Z,25.33
2018-06-16T11:58:52.692Z,25.46
2018-06-16T11:59:52.702Z,25.59
2018-06-16T12:00:52.711Z,25.75
2018-06-16T12:01:52.781Z,25.98
2018-06-16T12:02:52.735Z,26.07
2018-06-16T12:03:52.743Z,25.96
2018-06-16T12:04:52.751Z,25.70
2018-06-16T12:05:52.760Z,25.62
2018-06-16T12:06:52.772Z,25.70
2018-06-16T12:07:52.780Z,25.43
2018-06-16T12:08:52.790Z,25.33
2018-06-16T12:09:52.801Z,25.47
2018-06-16T12:10:52.810Z,25.59
2018-06-16T12:11:52.821Z,25.91
2018-06-16T12:12:52.832Z,26.13
2018-06-16T12:13:52.840Z,25.91
2018-06-16T12:14:52.849Z,25.69
2018-06-16T12:15:52.861Z,25.17
2018-06-16T12:16:52.870Z,25.18
2018-06-16T12:17:52.878Z,25.08
2018-06-16T12:18:52.888Z,25.43
2018-06-16T12:19:52.901Z,25.43
2018-06-16T12:20:52.909Z,25.62
2018-06-16T12:21:52.916Z,25.75
2018-06-16T12:22:52.927Z,25.87
2018-06-16T12:23:52.936Z,25.96
2018-06-16T12:24:52.946Z,25.63
2018-06-16T12:25:52.956Z,25.85
2018-06-16T12:26:52.965Z,25.72
2018-06-16T12:27:52.975Z,25.88
2018-06-16T12:28:52.991Z,26.25
2018-06-16T12:29:52.993Z,26.18
2018-06-16T12:30:53.003Z,26.37
2018-06-16T12:31:53.013Z,26.40
2018-06-16T12:32:53.023Z,25.85
2018-06-16T12:33:53.031Z,25.90
2018-06-16T12:34:53.042Z,25.96
2018-06-16T12:35:53.059Z,25.77
2018-06-16T12:36:53.062Z,25.69
2018-06-16T12:37:53.070Z,25.83
2018-06-16T12:38:53.082Z,25.83
2018-06-16T12:39:53.091Z,26.03
2018-06-16T12:40:53.100Z,25.88
2018-06-16T12:41:53.108Z,25.63
2018-06-16T12:42:53.118Z,25.63
2018-06-16T12:43:53.127Z,25.72
2018-06-16T12:44:53.137Z,25.88
2018-06-16T12:45:53.145Z,25.96
2018-06-16T12:46:53.155Z,25.78
2018-06-16T12:47:53.164Z,25.72
2018-06-16T12:48:53.176Z,25.68
2018-06-16T12:49:53.183Z,26.06
2018-06-16T12:50:53.195Z,26.16
2018-06-16T12:51:53.202Z,26.09
2018-06-16T12:52:53.211Z,26.51